sensor_id;sensor_type;location;lat;lon;timestamp;P1;durP1;ratioP1;P2;durP2;ratioP2
70829;SDS011;58451;51.550;7.208;2024-03-23T00:54:03;11.70;;;1.70;;
70829;SDS011;58451;51.550;7.208;2024-03-23T00:55:35;16.00;;;2.30;;
70829;SDS011;58451;51.550;7.208;2024-03-23T00:57:07;18.20;;;2.90;;
70829;SDS011;58451;51.550;7.208;2024-03-23T00:58:39;12.20;;;2.50;;
70829;SDS011;58451;51.550;7.208;2024-03-23T01:00:11;14.40;;;2.10;;
70829;SDS011;58451;51.550;7.208;2024-03-23T01:01:44;13.00;;;2.20;;
70829;SDS011;58451;51.550;7.208;2024-03-23T01:03:16;18.20;;;2.60;;
70829;SDS011;58451;51.550;7.208;2024-03-23T01:04:47;13.30;;;2.60;;
70829;SDS011;58451;51.550;7.208;2024-03-23T01:06:22;16.40;;;2.20;;
70829;SDS011;58451;51.550;7.208;2024-03-23T01:07:54;17.20;;;2.30;;
70829;SDS011;58451;51.550;7.208;2024-03-23T01:09:26;11.90;;;1.70;;
70829;SDS011;58451;51.550;7.208;2024-03-23T01:10:59;14.40;;;2.00;;
70829;SDS011;58451;51.550;7.208;2024-03-23T01:12:33;12.30;;;1.80;;
70829;SDS011;58451;51.550;7.208;2024-03-23T01:14:05;18.80;;;2.60;;
70829;SDS011;58451;51.550;7.208;2024-03-23T01:15:37;14.20;;;2.30;;
70829;SDS011;58451;51.550;7.208;2024-03-23T01:17:09;11.90;;;1.80;;
70829;SDS011;58451;51.550;7.208;2024-03-23T01:18:42;7.80;;;1.90;;
70829;SDS011;58451;51.550;7.208;2024-03-23T01:20:14;12.00;;;2.10;;
70829;SDS011;58451;51.550;7.208;2024-03-23T01:21:47;10.80;;;1.50;;
70829;SDS011;58451;51.550;7.208;2024-03-23T01:23:20;11.30;;;1.70;;
70829;SDS011;58451;51.550;7.208;2024-03-23T01:24:52;9.80;;;1.50;;
70829;SDS011;58451;51.550;7.208;2024-03-23T01:26:24;10.90;;;1.40;;
70829;SDS011;58451;51.550;7.208;2024-03-23T01:27:56;11.80;;;1.50;;
70829;SDS011;58451;51.550;7.208;2024-03-23T01:29:28;8.60;;;1.30;;
70829;SDS011;58451;51.550;7.208;2024-03-23T01:31:00;12.00;;;1.30;;
70829;SDS011;58451;51.550;7.208;2024-03-23T01:32:32;8.70;;;1.30;;
70829;SDS011;58451;51.550;7.208;2024-03-23T01:34:04;8.30;;;1.40;;
70829;SDS011;58451;51.550;7.208;2024-03-23T01:35:36;9.90;;;1.30;;
70829;SDS011;58451;51.550;7.208;2024-03-23T01:37:08;10.40;;;1.70;;
70829;SDS011;58451;51.550;7.208;2024-03-23T01:38:39;12.70;;;1.40;;
70829;SDS011;58451;51.550;7.208;2024-03-23T01:40:12;9.90;;;1.20;;
70829;SDS011;58451;51.550;7.208;2024-03-23T01:41:45;9.50;;;1.20;;
70829;SDS011;58451;51.550;7.208;2024-03-23T01:43:16;8.10;;;1.00;;
70829;SDS011;58451;51.550;7.208;2024-03-23T01:44:49;10.50;;;1.60;;
70829;SDS011;58451;51.550;7.208;2024-03-23T01:46:21;6.80;;;0.80;;
70829;SDS011;58451;51.550;7.208;2024-03-23T01:47:53;8.50;;;0.80;;
70829;SDS011;58451;51.550;7.208;2024-03-23T01:49:25;6.90;;;1.20;;
70829;SDS011;58451;51.550;7.208;2024-03-23T01:50:58;9.90;;;1.20;;
70829;SDS011;58451;51.550;7.208;2024-03-23T01:52:30;9.40;;;1.30;;
70829;SDS011;58451;51.550;7.208;2024-03-23T01:54:03;10.70;;;1.10;;
70829;SDS011;58451;51.550;7.208;2024-03-23T01:55:35;8.90;;;1.10;;
70829;SDS011;58451;51.550;7.208;2024-03-23T01:57:10;9.40;;;1.10;;
70829;SDS011;58451;51.550;7.208;2024-03-23T01:58:42;11.50;;;1.50;;
70829;SDS011;58451;51.550;7.208;2024-03-23T02:00:14;8.70;;;1.30;;
70829;SDS011;58451;51.550;7.208;2024-03-23T02:01:46;8.20;;;1.10;;
70829;SDS011;58451;51.550;7.208;2024-03-23T02:03:25;9.70;;;1.20;;
70829;SDS011;58451;51.550;7.208;2024-03-23T02:04:58;8.90;;;1.20;;
70829;SDS011;58451;51.550;7.208;2024-03-23T02:06:30;9.50;;;1.10;;
70829;SDS011;58451;51.550;7.208;2024-03-23T02:08:02;10.00;;;1.30;;
70829;SDS011;58451;51.550;7.208;2024-03-23T02:09:34;7.40;;;1.20;;
70829;SDS011;58451;51.550;7.208;2024-03-23T02:11:07;6.20;;;1.10;;
70829;SDS011;58451;51.550;7.208;2024-03-23T02:12:39;10.30;;;1.20;;
70829;SDS011;58451;51.550;7.208;2024-03-23T02:14:11;10.90;;;1.60;;
70829;SDS011;58451;51.550;7.208;2024-03-23T02:15:43;8.60;;;1.40;;
70829;SDS011;58451;51.550;7.208;2024-03-23T02:17:16;11.20;;;1.70;;
70829;SDS011;58451;51.550;7.208;2024-03-23T02:18:48;13.10;;;1.30;;
70829;SDS011;58451;51.550;7.208;2024-03-23T02:20:19;10.90;;;1.60;;
70829;SDS011;58451;51.550;7.208;2024-03-23T02:21:51;11.80;;;1.70;;
70829;SDS011;58451;51.550;7.208;2024-03-23T02:23:23;8.50;;;1.10;;
70829;SDS011;58451;51.550;7.208;2024-03-23T02:24:56;9.30;;;1.60;;
70829;SDS011;58451;51.550;7.208;2024-03-23T02:26:29;9.60;;;1.20;;
70829;SDS011;58451;51.550;7.208;2024-03-23T02:28:01;9.70;;;1.40;;
70829;SDS011;58451;51.550;7.208;2024-03-23T02:29:33;7.50;;;1.50;;
70829;SDS011;58451;51.550;7.208;2024-03-23T02:31:05;10.10;;;1.50;;
70829;SDS011;58451;51.550;7.208;2024-03-23T02:32:37;9.70;;;1.30;;
70829;SDS011;58451;51.550;7.208;2024-03-23T02:34:09;8.30;;;1.10;;
70829;SDS011;58451;51.550;7.208;2024-03-23T02:35:55;9.50;;;1.30;;
70829;SDS011;58451;51.550;7.208;2024-03-23T02:37:28;10.60;;;1.40;;
70829;SDS011;58451;51.550;7.208;2024-03-23T02:39:00;9.60;;;1.40;;
70829;SDS011;58451;51.550;7.208;2024-03-23T02:40:34;12.00;;;1.40;;
70829;SDS011;58451;51.550;7.208;2024-03-23T02:42:08;12.10;;;1.30;;
70829;SDS011;58451;51.550;7.208;2024-03-23T02:43:40;8.40;;;1.30;;
70829;SDS011;58451;51.550;7.208;2024-03-23T02:45:12;12.20;;;1.40;;
70829;SDS011;58451;51.550;7.208;2024-03-23T02:46:45;10.60;;;1.20;;
70829;SDS011;58451;51.550;7.208;2024-03-23T02:48:18;7.80;;;1.30;;
70829;SDS011;58451;51.550;7.208;2024-03-23T02:49:50;10.20;;;1.40;;
70829;SDS011;58451;51.550;7.208;2024-03-23T02:51:22;11.60;;;1.40;;
70829;SDS011;58451;51.550;7.208;2024-03-23T02:52:54;9.50;;;1.60;;
70829;SDS011;58451;51.550;7.208;2024-03-23T02:54:26;9.70;;;1.40;;
70829;SDS011;58451;51.550;7.208;2024-03-23T02:55:58;10.50;;;1.20;;
70829;SDS011;58451;51.550;7.208;2024-03-23T02:57:30;11.40;;;1.60;;
70829;SDS011;58451;51.550;7.208;2024-03-23T02:59:02;7.40;;;1.30;;
70829;SDS011;58451;51.550;7.208;2024-03-23T03:00:34;9.90;;;1.30;;
70829;SDS011;58451;51.550;7.208;2024-03-23T03:02:06;8.40;;;1.50;;
70829;SDS011;58451;51.550;7.208;2024-03-23T03:03:38;9.90;;;1.10;;
70829;SDS011;58451;51.550;7.208;2024-03-23T03:05:10;7.40;;;1.10;;
70829;SDS011;58451;51.550;7.208;2024-03-23T03:06:46;10.50;;;1.40;;
70829;SDS011;58451;51.550;7.208;2024-03-23T03:08:19;6.30;;;1.00;;
70829;SDS011;58451;51.550;7.208;2024-03-23T03:09:50;10.30;;;1.30;;
70829;SDS011;58451;51.550;7.208;2024-03-23T03:11:23;9.40;;;1.40;;
70829;SDS011;58451;51.550;7.208;2024-03-23T03:12:57;7.20;;;0.90;;
70829;SDS011;58451;51.550;7.208;2024-03-23T03:14:29;7.30;;;1.30;;
70829;SDS011;58451;51.550;7.208;2024-03-23T03:16:08;9.40;;;1.20;;
70829;SDS011;58451;51.550;7.208;2024-03-23T03:17:41;8.60;;;1.20;;
70829;SDS011;58451;51.550;7.208;2024-03-23T03:19:13;10.60;;;1.10;;
70829;SDS011;58451;51.550;7.208;2024-03-23T03:20:48;6.80;;;1.00;;
70829;SDS011;58451;51.550;7.208;2024-03-23T03:22:21;8.90;;;1.50;;
70829;SDS011;58451;51.550;7.208;2024-03-23T03:23:53;10.00;;;1.30;;
70829;SDS011;58451;51.550;7.208;2024-03-23T03:25:29;8.40;;;1.20;;
70829;SDS011;58451;51.550;7.208;2024-03-23T03:27:00;10.10;;;1.10;;
70829;SDS011;58451;51.550;7.208;2024-03-23T03:28:35;10.30;;;1.00;;
70829;SDS011;58451;51.550;7.208;2024-03-23T03:30:07;8.90;;;1.00;;
70829;SDS011;58451;51.550;7.208;2024-03-23T03:31:40;7.60;;;1.10;;
70829;SDS011;58451;51.550;7.208;2024-03-23T03:33:12;8.00;;;1.00;;
70829;SDS011;58451;51.550;7.208;2024-03-23T03:34:44;10.00;;;1.00;;
70829;SDS011;58451;51.550;7.208;2024-03-23T03:36:16;8.90;;;1.00;;
70829;SDS011;58451;51.550;7.208;2024-03-23T03:37:48;5.60;;;0.80;;
70829;SDS011;58451;51.550;7.208;2024-03-23T03:39:20;10.30;;;1.10;;
70829;SDS011;58451;51.550;7.208;2024-03-23T03:40:55;6.00;;;0.90;;
70829;SDS011;58451;51.550;7.208;2024-03-23T03:42:27;7.70;;;1.10;;
70829;SDS011;58451;51.550;7.208;2024-03-23T03:43:59;9.30;;;1.10;;
70829;SDS011;58451;51.550;7.208;2024-03-23T03:45:33;7.10;;;1.10;;
70829;SDS011;58451;51.550;7.208;2024-03-23T03:47:07;9.80;;;1.40;;
70829;SDS011;58451;51.550;7.208;2024-03-23T03:48:39;6.90;;;0.90;;
70829;SDS011;58451;51.550;7.208;2024-03-23T03:50:11;5.60;;;0.80;;
70829;SDS011;58451;51.550;7.208;2024-03-23T03:51:43;6.10;;;1.20;;
70829;SDS011;58451;51.550;7.208;2024-03-23T03:53:15;13.30;;;1.40;;
70829;SDS011;58451;51.550;7.208;2024-03-23T03:54:47;9.90;;;0.90;;
70829;SDS011;58451;51.550;7.208;2024-03-23T03:56:19;9.70;;;1.00;;
70829;SDS011;58451;51.550;7.208;2024-03-23T03:57:51;10.30;;;0.90;;
70829;SDS011;58451;51.550;7.208;2024-03-23T03:59:22;8.40;;;1.40;;
70829;SDS011;58451;51.550;7.208;2024-03-23T04:00:54;6.10;;;0.80;;
70829;SDS011;58451;51.550;7.208;2024-03-23T04:02:26;8.60;;;1.20;;
70829;SDS011;58451;51.550;7.208;2024-03-23T04:03:58;6.90;;;1.00;;
70829;SDS011;58451;51.550;7.208;2024-03-23T04:05:30;8.10;;;1.00;;
70829;SDS011;58451;51.550;7.208;2024-03-23T04:07:02;8.60;;;0.80;;
70829;SDS011;58451;51.550;7.208;2024-03-23T04:08:37;8.70;;;1.30;;
70829;SDS011;58451;51.550;7.208;2024-03-23T04:10:12;6.20;;;0.80;;
70829;SDS011;58451;51.550;7.208;2024-03-23T04:11:43;6.40;;;0.90;;
70829;SDS011;58451;51.550;7.208;2024-03-23T04:13:15;8.30;;;1.10;;
70829;SDS011;58451;51.550;7.208;2024-03-23T04:14:47;8.20;;;1.00;;
70829;SDS011;58451;51.550;7.208;2024-03-23T04:16:31;10.70;;;1.10;;
70829;SDS011;58451;51.550;7.208;2024-03-23T04:18:06;8.00;;;0.90;;
70829;SDS011;58451;51.550;7.208;2024-03-23T04:19:38;9.60;;;1.00;;
70829;SDS011;58451;51.550;7.208;2024-03-23T04:21:11;8.60;;;1.00;;
70829;SDS011;58451;51.550;7.208;2024-03-23T04:22:43;8.20;;;0.90;;
70829;SDS011;58451;51.550;7.208;2024-03-23T04:24:15;4.60;;;0.70;;
70829;SDS011;58451;51.550;7.208;2024-03-23T04:25:47;8.20;;;0.90;;
70829;SDS011;58451;51.550;7.208;2024-03-23T04:27:19;7.30;;;1.00;;
70829;SDS011;58451;51.550;7.208;2024-03-23T04:28:51;6.70;;;1.00;;
70829;SDS011;58451;51.550;7.208;2024-03-23T04:30:23;7.30;;;0.80;;
70829;SDS011;58451;51.550;7.208;2024-03-23T04:31:56;5.70;;;0.80;;
70829;SDS011;58451;51.550;7.208;2024-03-23T04:33:28;9.20;;;1.10;;
70829;SDS011;58451;51.550;7.208;2024-03-23T04:35:00;7.30;;;0.80;;
70829;SDS011;58451;51.550;7.208;2024-03-23T04:36:32;9.00;;;1.00;;
70829;SDS011;58451;51.550;7.208;2024-03-23T04:38:04;9.90;;;0.90;;
70829;SDS011;58451;51.550;7.208;2024-03-23T04:39:36;9.40;;;1.20;;
70829;SDS011;58451;51.550;7.208;2024-03-23T04:41:09;8.10;;;1.20;;
70829;SDS011;58451;51.550;7.208;2024-03-23T04:42:41;7.30;;;1.00;;
70829;SDS011;58451;51.550;7.208;2024-03-23T04:44:13;11.20;;;2.00;;
70829;SDS011;58451;51.550;7.208;2024-03-23T04:45:45;8.30;;;1.10;;
70829;SDS011;58451;51.550;7.208;2024-03-23T04:47:17;9.00;;;1.40;;
70829;SDS011;58451;51.550;7.208;2024-03-23T04:48:50;7.30;;;1.20;;
70829;SDS011;58451;51.550;7.208;2024-03-23T04:50:22;8.40;;;1.30;;
70829;SDS011;58451;51.550;7.208;2024-03-23T04:51:54;6.50;;;1.10;;
70829;SDS011;58451;51.550;7.208;2024-03-23T04:53:26;10.00;;;1.60;;
70829;SDS011;58451;51.550;7.208;2024-03-23T04:55:01;12.60;;;1.90;;
70829;SDS011;58451;51.550;7.208;2024-03-23T04:56:34;14.60;;;2.60;;
70829;SDS011;58451;51.550;7.208;2024-03-23T04:58:08;16.40;;;2.30;;
70829;SDS011;58451;51.550;7.208;2024-03-23T04:59:40;10.40;;;1.90;;
70829;SDS011;58451;51.550;7.208;2024-03-23T05:01:12;10.70;;;1.90;;
70829;SDS011;58451;51.550;7.208;2024-03-23T05:02:47;15.40;;;2.70;;
70829;SDS011;58451;51.550;7.208;2024-03-23T05:04:19;10.70;;;1.90;;
70829;SDS011;58451;51.550;7.208;2024-03-23T05:05:51;9.10;;;2.20;;
70829;SDS011;58451;51.550;7.208;2024-03-23T05:07:23;10.50;;;1.80;;
70829;SDS011;58451;51.550;7.208;2024-03-23T05:08:55;13.20;;;2.10;;
70829;SDS011;58451;51.550;7.208;2024-03-23T05:10:27;11.40;;;2.20;;
70829;SDS011;58451;51.550;7.208;2024-03-23T05:12:00;12.00;;;2.00;;
70829;SDS011;58451;51.550;7.208;2024-03-23T05:13:32;10.10;;;2.00;;
70829;SDS011;58451;51.550;7.208;2024-03-23T05:15:07;11.20;;;2.20;;
70829;SDS011;58451;51.550;7.208;2024-03-23T05:16:39;5.90;;;1.10;;
70829;SDS011;58451;51.550;7.208;2024-03-23T05:18:11;9.30;;;1.70;;
70829;SDS011;58451;51.550;7.208;2024-03-23T05:19:44;11.00;;;1.90;;
70829;SDS011;58451;51.550;7.208;2024-03-23T05:21:16;9.60;;;1.50;;
70829;SDS011;58451;51.550;7.208;2024-03-23T05:22:50;8.80;;;1.80;;
70829;SDS011;58451;51.550;7.208;2024-03-23T05:24:23;12.00;;;1.80;;
70829;SDS011;58451;51.550;7.208;2024-03-23T05:25:55;13.80;;;2.10;;
70829;SDS011;58451;51.550;7.208;2024-03-23T05:27:27;7.30;;;1.60;;
70829;SDS011;58451;51.550;7.208;2024-03-23T05:28:59;7.10;;;1.40;;
70829;SDS011;58451;51.550;7.208;2024-03-23T05:30:31;16.50;;;2.30;;
70829;SDS011;58451;51.550;7.208;2024-03-23T05:32:03;9.40;;;1.50;;
70829;SDS011;58451;51.550;7.208;2024-03-23T05:33:36;11.00;;;1.90;;
70829;SDS011;58451;51.550;7.208;2024-03-23T05:35:12;10.10;;;2.00;;
70829;SDS011;58451;51.550;7.208;2024-03-23T05:36:44;13.00;;;2.00;;
70829;SDS011;58451;51.550;7.208;2024-03-23T05:38:16;9.90;;;1.70;;
70829;SDS011;58451;51.550;7.208;2024-03-23T05:39:48;10.20;;;1.80;;
70829;SDS011;58451;51.550;7.208;2024-03-23T05:41:23;13.00;;;2.60;;
70829;SDS011;58451;51.550;7.208;2024-03-23T05:42:55;8.50;;;1.70;;
70829;SDS011;58451;51.550;7.208;2024-03-23T05:44:30;9.00;;;1.70;;
70829;SDS011;58451;51.550;7.208;2024-03-23T05:46:03;11.40;;;1.90;;
70829;SDS011;58451;51.550;7.208;2024-03-23T05:47:37;6.80;;;1.50;;
70829;SDS011;58451;51.550;7.208;2024-03-23T05:49:09;13.00;;;2.20;;
70829;SDS011;58451;51.550;7.208;2024-03-23T05:50:40;10.20;;;1.90;;
70829;SDS011;58451;51.550;7.208;2024-03-23T05:52:13;11.70;;;2.40;;
70829;SDS011;58451;51.550;7.208;2024-03-23T05:53:45;8.70;;;2.10;;
70829;SDS011;58451;51.550;7.208;2024-03-23T05:55:17;11.50;;;2.10;;
70829;SDS011;58451;51.550;7.208;2024-03-23T05:56:49;11.10;;;2.30;;
70829;SDS011;58451;51.550;7.208;2024-03-23T05:58:27;9.40;;;2.10;;
70829;SDS011;58451;51.550;7.208;2024-03-23T05:59:59;11.20;;;2.40;;
70829;SDS011;58451;51.550;7.208;2024-03-23T06:01:31;11.40;;;2.60;;
70829;SDS011;58451;51.550;7.208;2024-03-23T06:03:06;12.90;;;2.70;;
70829;SDS011;58451;51.550;7.208;2024-03-23T06:04:40;14.70;;;2.80;;
70829;SDS011;58451;51.550;7.208;2024-03-23T06:06:12;13.10;;;2.70;;
70829;SDS011;58451;51.550;7.208;2024-03-23T06:07:45;9.30;;;2.20;;
70829;SDS011;58451;51.550;7.208;2024-03-23T06:09:17;14.10;;;3.00;;
70829;SDS011;58451;51.550;7.208;2024-03-23T06:10:49;14.20;;;2.50;;
70829;SDS011;58451;51.550;7.208;2024-03-23T06:12:24;11.60;;;3.00;;
70829;SDS011;58451;51.550;7.208;2024-03-23T06:13:56;12.30;;;3.30;;
70829;SDS011;58451;51.550;7.208;2024-03-23T06:15:28;16.20;;;3.60;;
70829;SDS011;58451;51.550;7.208;2024-03-23T06:17:05;14.00;;;4.00;;
70829;SDS011;58451;51.550;7.208;2024-03-23T06:18:37;14.40;;;3.80;;
70829;SDS011;58451;51.550;7.208;2024-03-23T06:20:09;13.00;;;3.40;;
70829;SDS011;58451;51.550;7.208;2024-03-23T06:21:45;15.70;;;4.20;;
70829;SDS011;58451;51.550;7.208;2024-03-23T06:23:21;12.90;;;4.30;;
70829;SDS011;58451;51.550;7.208;2024-03-23T06:24:53;14.10;;;4.00;;
70829;SDS011;58451;51.550;7.208;2024-03-23T06:26:25;15.70;;;4.80;;
70829;SDS011;58451;51.550;7.208;2024-03-23T06:27:57;15.00;;;4.70;;
70829;SDS011;58451;51.550;7.208;2024-03-23T06:29:37;13.90;;;4.30;;
70829;SDS011;58451;51.550;7.208;2024-03-23T06:31:09;18.50;;;5.30;;
70829;SDS011;58451;51.550;7.208;2024-03-23T06:32:42;15.50;;;5.00;;
70829;SDS011;58451;51.550;7.208;2024-03-23T06:34:14;19.00;;;5.20;;
70829;SDS011;58451;51.550;7.208;2024-03-23T06:35:51;15.40;;;5.10;;
70829;SDS011;58451;51.550;7.208;2024-03-23T06:37:24;14.10;;;4.60;;
70829;SDS011;58451;51.550;7.208;2024-03-23T06:38:56;19.10;;;4.90;;
70829;SDS011;58451;51.550;7.208;2024-03-23T06:40:28;14.90;;;4.70;;
70829;SDS011;58451;51.550;7.208;2024-03-23T06:42:00;15.50;;;4.70;;
70829;SDS011;58451;51.550;7.208;2024-03-23T06:43:32;15.90;;;4.90;;
70829;SDS011;58451;51.550;7.208;2024-03-23T06:45:06;17.10;;;4.90;;
70829;SDS011;58451;51.550;7.208;2024-03-23T06:46:40;18.30;;;5.30;;
70829;SDS011;58451;51.550;7.208;2024-03-23T06:48:13;17.50;;;5.20;;
70829;SDS011;58451;51.550;7.208;2024-03-23T06:49:45;17.50;;;4.60;;
70829;SDS011;58451;51.550;7.208;2024-03-23T06:51:17;16.80;;;4.70;;
70829;SDS011;58451;51.550;7.208;2024-03-23T06:52:49;14.90;;;4.50;;
70829;SDS011;58451;51.550;7.208;2024-03-23T06:54:21;13.70;;;4.80;;
70829;SDS011;58451;51.550;7.208;2024-03-23T06:55:53;15.60;;;5.00;;
70829;SDS011;58451;51.550;7.208;2024-03-23T06:57:27;17.80;;;5.30;;
70829;SDS011;58451;51.550;7.208;2024-03-23T06:58:59;17.20;;;5.10;;
70829;SDS011;58451;51.550;7.208;2024-03-23T07:00:31;19.00;;;5.70;;
70829;SDS011;58451;51.550;7.208;2024-03-23T07:02:07;15.30;;;5.20;;
70829;SDS011;58451;51.550;7.208;2024-03-23T07:03:42;15.00;;;4.70;;
70829;SDS011;58451;51.550;7.208;2024-03-23T07:05:14;16.60;;;5.50;;
70829;SDS011;58451;51.550;7.208;2024-03-23T07:06:46;13.00;;;4.40;;
70829;SDS011;58451;51.550;7.208;2024-03-23T07:08:18;13.90;;;4.60;;
70829;SDS011;58451;51.550;7.208;2024-03-23T07:09:53;16.50;;;5.40;;
70829;SDS011;58451;51.550;7.208;2024-03-23T07:11:25;12.80;;;4.30;;
70829;SDS011;58451;51.550;7.208;2024-03-23T07:12:58;12.30;;;4.40;;
70829;SDS011;58451;51.550;7.208;2024-03-23T07:14:30;14.00;;;4.10;;
70829;SDS011;58451;51.550;7.208;2024-03-23T07:16:03;16.80;;;4.70;;
70829;SDS011;58451;51.550;7.208;2024-03-23T07:17:35;13.70;;;3.90;;
70829;SDS011;58451;51.550;7.208;2024-03-23T07:19:07;13.20;;;4.80;;
70829;SDS011;58451;51.550;7.208;2024-03-23T07:20:40;18.50;;;4.90;;
70829;SDS011;58451;51.550;7.208;2024-03-23T07:22:12;18.10;;;5.20;;
70829;SDS011;58451;51.550;7.208;2024-03-23T07:23:43;16.60;;;4.80;;
70829;SDS011;58451;51.550;7.208;2024-03-23T07:25:18;19.20;;;5.10;;
70829;SDS011;58451;51.550;7.208;2024-03-23T07:26:52;14.50;;;4.70;;
70829;SDS011;58451;51.550;7.208;2024-03-23T07:28:26;14.30;;;4.20;;
70829;SDS011;58451;51.550;7.208;2024-03-23T07:30:04;16.60;;;4.40;;
70829;SDS011;58451;51.550;7.208;2024-03-23T07:31:37;15.00;;;4.90;;
70829;SDS011;58451;51.550;7.208;2024-03-23T07:33:13;13.10;;;4.30;;
70829;SDS011;58451;51.550;7.208;2024-03-23T07:34:45;15.90;;;4.50;;
70829;SDS011;58451;51.550;7.208;2024-03-23T07:36:17;14.30;;;4.30;;
70829;SDS011;58451;51.550;7.208;2024-03-23T07:37:49;13.50;;;4.10;;
70829;SDS011;58451;51.550;7.208;2024-03-23T07:39:21;11.70;;;4.00;;
70829;SDS011;58451;51.550;7.208;2024-03-23T07:40:52;13.50;;;3.90;;
70829;SDS011;58451;51.550;7.208;2024-03-23T07:42:34;14.20;;;3.70;;
70829;SDS011;58451;51.550;7.208;2024-03-23T07:44:06;12.50;;;4.10;;
70829;SDS011;58451;51.550;7.208;2024-03-23T07:45:38;15.30;;;4.20;;
70829;SDS011;58451;51.550;7.208;2024-03-23T07:47:15;13.50;;;3.70;;
70829;SDS011;58451;51.550;7.208;2024-03-23T07:48:47;18.20;;;4.60;;
70829;SDS011;58451;51.550;7.208;2024-03-23T07:50:21;13.10;;;3.70;;
70829;SDS011;58451;51.550;7.208;2024-03-23T07:51:53;12.70;;;4.20;;
70829;SDS011;58451;51.550;7.208;2024-03-23T07:53:51;15.50;;;4.90;;
70829;SDS011;58451;51.550;7.208;2024-03-23T07:55:39;14.60;;;4.60;;
70829;SDS011;58451;51.550;7.208;2024-03-23T07:57:38;14.90;;;4.10;;
70829;SDS011;58451;51.550;7.208;2024-03-23T07:59:41;13.90;;;4.30;;
70829;SDS011;58451;51.550;7.208;2024-03-23T08:16:30;12.90;;;3.80;;
70829;SDS011;58451;51.550;7.208;2024-03-23T08:18:02;14.80;;;4.20;;
70829;SDS011;58451;51.550;7.208;2024-03-23T08:19:40;14.10;;;3.70;;
70829;SDS011;58451;51.550;7.208;2024-03-23T08:21:13;13.00;;;3.40;;
70829;SDS011;58451;51.550;7.208;2024-03-23T08:22:45;13.80;;;3.70;;
70829;SDS011;58451;51.550;7.208;2024-03-23T08:24:16;14.00;;;3.50;;
70829;SDS011;58451;51.550;7.208;2024-03-23T08:25:48;10.80;;;3.80;;
70829;SDS011;58451;51.550;7.208;2024-03-23T08:31:42;16.50;;;3.50;;
70829;SDS011;58451;51.550;7.208;2024-03-23T08:33:14;13.50;;;3.80;;
70829;SDS011;58451;51.550;7.208;2024-03-23T08:34:48;15.50;;;3.10;;
70829;SDS011;58451;51.550;7.208;2024-03-23T08:36:20;13.30;;;4.20;;
70829;SDS011;58451;51.550;7.208;2024-03-23T08:37:52;18.60;;;4.20;;
70829;SDS011;58451;51.550;7.208;2024-03-23T08:41:27;11.20;;;2.80;;
70829;SDS011;58451;51.550;7.208;2024-03-23T08:43:07;14.10;;;3.50;;
70829;SDS011;58451;51.550;7.208;2024-03-23T08:44:57;11.80;;;3.00;;
70829;SDS011;58451;51.550;7.208;2024-03-23T08:46:31;14.60;;;3.80;;
70829;SDS011;58451;51.550;7.208;2024-03-23T09:00:34;12.00;;;2.60;;
70829;SDS011;58451;51.550;7.208;2024-03-23T09:02:09;7.50;;;2.10;;
70829;SDS011;58451;51.550;7.208;2024-03-23T09:03:42;12.10;;;2.70;;
70829;SDS011;58451;51.550;7.208;2024-03-23T09:05:13;14.70;;;3.10;;
70829;SDS011;58451;51.550;7.208;2024-03-23T09:06:45;11.20;;;2.80;;
70829;SDS011;58451;51.550;7.208;2024-03-23T09:08:18;10.00;;;2.50;;
70829;SDS011;58451;51.550;7.208;2024-03-23T09:09:49;12.20;;;2.40;;
70829;SDS011;58451;51.550;7.208;2024-03-23T09:11:21;12.30;;;2.70;;
70829;SDS011;58451;51.550;7.208;2024-03-23T09:12:52;10.90;;;2.70;;
70829;SDS011;58451;51.550;7.208;2024-03-23T09:14:25;10.90;;;2.60;;
70829;SDS011;58451;51.550;7.208;2024-03-23T09:15:58;12.00;;;2.90;;
70829;SDS011;58451;51.550;7.208;2024-03-23T09:17:30;11.30;;;2.00;;
70829;SDS011;58451;51.550;7.208;2024-03-23T09:19:02;7.30;;;1.80;;
70829;SDS011;58451;51.550;7.208;2024-03-23T09:20:35;11.90;;;2.70;;
70829;SDS011;58451;51.550;7.208;2024-03-23T09:22:29;10.40;;;1.90;;
70829;SDS011;58451;51.550;7.208;2024-03-23T09:24:01;6.70;;;1.90;;
70829;SDS011;58451;51.550;7.208;2024-03-23T09:25:37;9.50;;;2.40;;
70829;SDS011;58451;51.550;7.208;2024-03-23T09:27:11;10.70;;;2.40;;
70829;SDS011;58451;51.550;7.208;2024-03-23T09:28:48;7.50;;;2.10;;
70829;SDS011;58451;51.550;7.208;2024-03-23T09:30:20;7.40;;;2.30;;
70829;SDS011;58451;51.550;7.208;2024-03-23T09:31:52;10.70;;;2.60;;
70829;SDS011;58451;51.550;7.208;2024-03-23T09:33:24;10.30;;;2.50;;
70829;SDS011;58451;51.550;7.208;2024-03-23T09:34:55;10.20;;;2.40;;
70829;SDS011;58451;51.550;7.208;2024-03-23T09:36:26;10.00;;;2.30;;
70829;SDS011;58451;51.550;7.208;2024-03-23T09:37:59;8.70;;;2.10;;
70829;SDS011;58451;51.550;7.208;2024-03-23T09:39:30;8.90;;;2.30;;
70829;SDS011;58451;51.550;7.208;2024-03-23T09:41:07;9.30;;;2.20;;
70829;SDS011;58451;51.550;7.208;2024-03-23T09:42:42;8.00;;;2.00;;
70829;SDS011;58451;51.550;7.208;2024-03-23T09:44:23;11.60;;;2.50;;
70829;SDS011;58451;51.550;7.208;2024-03-23T09:45:57;8.70;;;1.80;;
70829;SDS011;58451;51.550;7.208;2024-03-23T09:47:29;10.90;;;2.00;;
70829;SDS011;58451;51.550;7.208;2024-03-23T09:49:01;8.30;;;1.30;;
70829;SDS011;58451;51.550;7.208;2024-03-23T09:50:39;8.50;;;1.40;;
70829;SDS011;58451;51.550;7.208;2024-03-23T09:52:11;7.00;;;1.50;;
70829;SDS011;58451;51.550;7.208;2024-03-23T09:53:43;8.40;;;1.70;;
70829;SDS011;58451;51.550;7.208;2024-03-23T09:55:16;9.30;;;1.50;;
70829;SDS011;58451;51.550;7.208;2024-03-23T09:56:47;10.40;;;1.50;;
70829;SDS011;58451;51.550;7.208;2024-03-23T09:58:24;6.40;;;1.70;;
70829;SDS011;58451;51.550;7.208;2024-03-23T09:59:55;9.30;;;2.20;;
70829;SDS011;58451;51.550;7.208;2024-03-23T10:01:30;10.10;;;1.60;;
70829;SDS011;58451;51.550;7.208;2024-03-23T10:03:01;6.80;;;1.40;;
70829;SDS011;58451;51.550;7.208;2024-03-23T10:04:40;5.80;;;1.50;;
70829;SDS011;58451;51.550;7.208;2024-03-23T10:06:13;5.80;;;1.40;;
70829;SDS011;58451;51.550;7.208;2024-03-23T10:07:45;9.00;;;1.90;;
70829;SDS011;58451;51.550;7.208;2024-03-23T10:09:25;6.50;;;1.70;;
70829;SDS011;58451;51.550;7.208;2024-03-23T10:10:58;9.60;;;2.30;;
70829;SDS011;58451;51.550;7.208;2024-03-23T10:12:48;10.10;;;2.60;;
70829;SDS011;58451;51.550;7.208;2024-03-23T10:14:33;7.50;;;1.90;;
70829;SDS011;58451;51.550;7.208;2024-03-23T10:16:04;7.30;;;1.30;;
70829;SDS011;58451;51.550;7.208;2024-03-23T10:17:39;8.10;;;1.70;;
70829;SDS011;58451;51.550;7.208;2024-03-23T10:19:11;5.80;;;1.20;;
70829;SDS011;58451;51.550;7.208;2024-03-23T10:20:42;10.30;;;1.40;;
70829;SDS011;58451;51.550;7.208;2024-03-23T10:22:18;6.90;;;1.40;;
70829;SDS011;58451;51.550;7.208;2024-03-23T10:23:52;9.80;;;1.70;;
70829;SDS011;58451;51.550;7.208;2024-03-23T10:25:23;7.80;;;2.20;;
70829;SDS011;58451;51.550;7.208;2024-03-23T10:26:58;10.70;;;2.10;;
70829;SDS011;58451;51.550;7.208;2024-03-23T10:28:29;6.90;;;1.60;;
70829;SDS011;58451;51.550;7.208;2024-03-23T10:30:13;9.60;;;1.60;;
70829;SDS011;58451;51.550;7.208;2024-03-23T10:31:50;6.10;;;1.40;;
70829;SDS011;58451;51.550;7.208;2024-03-23T10:33:22;8.70;;;1.70;;
70829;SDS011;58451;51.550;7.208;2024-03-23T10:34:53;6.60;;;1.50;;
70829;SDS011;58451;51.550;7.208;2024-03-23T11:22:05;5.40;;;1.00;;
70829;SDS011;58451;51.550;7.208;2024-03-23T11:23:49;4.60;;;0.80;;
70829;SDS011;58451;51.550;7.208;2024-03-23T11:25:29;4.00;;;0.60;;
70829;SDS011;58451;51.550;7.208;2024-03-23T11:27:16;6.70;;;0.70;;
70829;SDS011;58451;51.550;7.208;2024-03-23T11:29:17;4.00;;;0.70;;
70829;SDS011;58451;51.550;7.208;2024-03-23T11:46:37;2.70;;;0.50;;
70829;SDS011;58451;51.550;7.208;2024-03-23T11:52:48;4.20;;;0.30;;